sensor_id;sensor_type;location;lat;lon;timestamp;temperature;humidity
53282;DHT22;39167;52.794;6.892;2023-04-24T00:01:48;11.10;99.90
53282;DHT22;39167;52.794;6.892;2023-04-24T00:04:14;11.10;99.90
53282;DHT22;39167;52.794;6.892;2023-04-24T00:06:42;11.00;99.90
53282;DHT22;39167;52.794;6.892;2023-04-24T00:09:11;11.00;99.90
53282;DHT22;39167;52.794;6.892;2023-04-24T00:11:37;11.00;99.90
53282;DHT22;39167;52.794;6.892;2023-04-24T00:14:03;11.00;99.90
53282;DHT22;39167;52.794;6.892;2023-04-24T00:16:29;10.90;99.90
53282;DHT22;39167;52.794;6.892;2023-04-24T00:18:55;10.90;99.90
53282;DHT22;39167;52.794;6.892;2023-04-24T00:21:20;10.90;99.90
53282;DHT22;39167;52.794;6.892;2023-04-24T00:23:47;10.80;99.90
53282;DHT22;39167;52.794;6.892;2023-04-24T00:26:13;10.80;99.90
53282;DHT22;39167;52.794;6.892;2023-04-24T00:28:39;10.80;99.90
53282;DHT22;39167;52.794;6.892;2023-04-24T00:31:05;10.70;99.90
53282;DHT22;39167;52.794;6.892;2023-04-24T00:33:31;10.70;99.90
53282;DHT22;39167;52.794;6.892;2023-04-24T00:35:56;10.70;99.90
53282;DHT22;39167;52.794;6.892;2023-04-24T00:38:22;10.60;99.90
53282;DHT22;39167;52.794;6.892;2023-04-24T00:40:48;10.60;99.90
53282;DHT22;39167;52.794;6.892;2023-04-24T00:43:16;10.60;99.90
53282;DHT22;39167;52.794;6.892;2023-04-24T00:45:43;10.60;99.90
53282;DHT22;39167;52.794;6.892;2023-04-24T00:48:09;10.50;99.90
53282;DHT22;39167;52.794;6.892;2023-04-24T00:50:36;10.50;99.90
53282;DHT22;39167;52.794;6.892;2023-04-24T00:53:02;10.50;99.90
53282;DHT22;39167;52.794;6.892;2023-04-24T00:55:28;10.50;99.90
53282;DHT22;39167;52.794;6.892;2023-04-24T00:57:54;10.40;99.90
53282;DHT22;39167;52.794;6.892;2023-04-24T01:00:20;10.40;99.90
53282;DHT22;39167;52.794;6.892;2023-04-24T01:02:46;10.40;99.90
53282;DHT22;39167;52.794;6.892;2023-04-24T01:05:13;10.30;99.90
53282;DHT22;39167;52.794;6.892;2023-04-24T01:07:44;9.80;99.90
53282;DHT22;39167;52.794;6.892;2023-04-24T01:10:11;10.20;99.90
53282;DHT22;39167;52.794;6.892;2023-04-24T01:12:38;10.20;99.90
53282;DHT22;39167;52.794;6.892;2023-04-24T01:15:05;10.20;99.90
53282;DHT22;39167;52.794;6.892;2023-04-24T01:17:32;10.20;99.90
53282;DHT22;39167;52.794;6.892;2023-04-24T01:19:59;10.10;99.90
53282;DHT22;39167;52.794;6.892;2023-04-24T01:22:25;10.10;99.90
53282;DHT22;39167;52.794;6.892;2023-04-24T01:24:52;10.20;99.90
53282;DHT22;39167;52.794;6.892;2023-04-24T01:27:19;10.10;99.90
53282;DHT22;39167;52.794;6.892;2023-04-24T01:29:45;10.00;99.90
53282;DHT22;39167;52.794;6.892;2023-04-24T01:32:11;10.00;99.90
53282;DHT22;39167;52.794;6.892;2023-04-24T01:34:37;10.00;99.90
53282;DHT22;39167;52.794;6.892;2023-04-24T01:37:03;10.00;99.90
53282;DHT22;39167;52.794;6.892;2023-04-24T01:39:30;9.90;99.90
53282;DHT22;39167;52.794;6.892;2023-04-24T01:41:56;9.90;99.90
53282;DHT22;39167;52.794;6.892;2023-04-24T01:44:22;9.90;99.90
53282;DHT22;39167;52.794;6.892;2023-04-24T01:46:48;9.90;99.90
53282;DHT22;39167;52.794;6.892;2023-04-24T01:49:14;9.90;99.90
53282;DHT22;39167;52.794;6.892;2023-04-24T01:51:40;9.90;99.90
53282;DHT22;39167;52.794;6.892;2023-04-24T01:54:05;9.80;99.90
53282;DHT22;39167;52.794;6.892;2023-04-24T01:56:33;9.80;99.90
53282;DHT22;39167;52.794;6.892;2023-04-24T01:59:02;9.80;99.90
53282;DHT22;39167;52.794;6.892;2023-04-24T02:01:33;9.80;99.90
53282;DHT22;39167;52.794;6.892;2023-04-24T02:04:00;9.80;99.90
53282;DHT22;39167;52.794;6.892;2023-04-24T02:06:25;9.80;99.90
53282;DHT22;39167;52.794;6.892;2023-04-24T02:08:51;9.80;99.90
53282;DHT22;39167;52.794;6.892;2023-04-24T02:11:17;9.70;99.90
53282;DHT22;39167;52.794;6.892;2023-04-24T02:13:44;9.70;99.90
53282;DHT22;39167;52.794;6.892;2023-04-24T02:16:09;9.70;99.90
53282;DHT22;39167;52.794;6.892;2023-04-24T02:18:35;9.70;99.90
53282;DHT22;39167;52.794;6.892;2023-04-24T02:21:01;9.70;99.90
53282;DHT22;39167;52.794;6.892;2023-04-24T02:23:27;9.70;99.90
53282;DHT22;39167;52.794;6.892;2023-04-24T02:25:53;9.70;99.90
53282;DHT22;39167;52.794;6.892;2023-04-24T02:28:19;9.70;99.90
53282;DHT22;39167;52.794;6.892;2023-04-24T02:30:45;9.70;99.90
53282;DHT22;39167;52.794;6.892;2023-04-24T02:33:11;9.70;99.90
53282;DHT22;39167;52.794;6.892;2023-04-24T02:35:37;9.70;99.90
53282;DHT22;39167;52.794;6.892;2023-04-24T02:38:03;9.70;99.90
53282;DHT22;39167;52.794;6.892;2023-04-24T02:40:29;9.70;99.90
53282;DHT22;39167;52.794;6.892;2023-04-24T02:42:55;9.70;99.90
53282;DHT22;39167;52.794;6.892;2023-04-24T02:45:21;9.70;99.90
53282;DHT22;39167;52.794;6.892;2023-04-24T02:47:46;9.70;99.90
53282;DHT22;39167;52.794;6.892;2023-04-24T02:50:12;9.70;99.90
53282;DHT22;39167;52.794;6.892;2023-04-24T02:52:38;9.70;99.90
53282;DHT22;39167;52.794;6.892;2023-04-24T02:55:04;9.70;99.90
53282;DHT22;39167;52.794;6.892;2023-04-24T02:57:30;9.70;99.90
53282;DHT22;39167;52.794;6.892;2023-04-24T02:59:56;9.70;99.90
53282;DHT22;39167;52.794;6.892;2023-04-24T03:02:22;9.70;99.90
53282;DHT22;39167;52.794;6.892;2023-04-24T03:04:47;9.60;99.90
53282;DHT22;39167;52.794;6.892;2023-04-24T03:07:14;9.60;99.90
53282;DHT22;39167;52.794;6.892;2023-04-24T03:09:40;9.60;99.90
53282;DHT22;39167;52.794;6.892;2023-04-24T03:12:06;9.60;99.90
53282;DHT22;39167;52.794;6.892;2023-04-24T03:14:32;9.50;99.90
53282;DHT22;39167;52.794;6.892;2023-04-24T03:16:58;9.00;99.90
53282;DHT22;39167;52.794;6.892;2023-04-24T03:19:23;9.50;99.90
53282;DHT22;39167;52.794;6.892;2023-04-24T03:21:49;9.50;99.90
53282;DHT22;39167;52.794;6.892;2023-04-24T03:24:15;9.50;99.90
53282;DHT22;39167;52.794;6.892;2023-04-24T03:26:41;9.50;99.90
53282;DHT22;39167;52.794;6.892;2023-04-24T03:29:07;9.50;99.90
53282;DHT22;39167;52.794;6.892;2023-04-24T03:31:33;9.50;99.90
53282;DHT22;39167;52.794;6.892;2023-04-24T03:33:58;9.50;99.90
53282;DHT22;39167;52.794;6.892;2023-04-24T03:36:24;9.50;99.90
53282;DHT22;39167;52.794;6.892;2023-04-24T03:38:51;9.50;99.90
53282;DHT22;39167;52.794;6.892;2023-04-24T03:41:17;9.50;99.90
53282;DHT22;39167;52.794;6.892;2023-04-24T03:43:42;9.50;99.90
53282;DHT22;39167;52.794;6.892;2023-04-24T03:46:08;9.50;99.90
53282;DHT22;39167;52.794;6.892;2023-04-24T03:48:35;9.50;99.90
53282;DHT22;39167;52.794;6.892;2023-04-24T03:51:00;9.50;99.90
53282;DHT22;39167;52.794;6.892;2023-04-24T03:53:26;9.50;99.90
53282;DHT22;39167;52.794;6.892;2023-04-24T03:55:53;9.40;99.90
53282;DHT22;39167;52.794;6.892;2023-04-24T03:58:18;9.50;99.90
53282;DHT22;39167;52.794;6.892;2023-04-24T04:00:44;9.50;99.90
53282;DHT22;39167;52.794;6.892;2023-04-24T04:03:12;9.40;99.90
53282;DHT22;39167;52.794;6.892;2023-04-24T04:05:39;9.40;99.90
53282;DHT22;39167;52.794;6.892;2023-04-24T04:08:05;9.40;99.90
53282;DHT22;39167;52.794;6.892;2023-04-24T04:10:31;9.40;99.90
53282;DHT22;39167;52.794;6.892;2023-04-24T04:12:56;9.40;99.90
53282;DHT22;39167;52.794;6.892;2023-04-24T04:15:22;9.40;99.90
53282;DHT22;39167;52.794;6.892;2023-04-24T04:17:48;9.40;99.90
53282;DHT22;39167;52.794;6.892;2023-04-24T04:20:13;9.40;99.90
53282;DHT22;39167;52.794;6.892;2023-04-24T04:22:39;9.40;99.90
53282;DHT22;39167;52.794;6.892;2023-04-24T04:25:05;9.40;99.90
53282;DHT22;39167;52.794;6.892;2023-04-24T04:27:32;9.40;99.90
53282;DHT22;39167;52.794;6.892;2023-04-24T04:30:02;9.60;99.90
53282;DHT22;39167;52.794;6.892;2023-04-24T04:32:32;9.30;99.90
53282;DHT22;39167;52.794;6.892;2023-04-24T04:35:04;9.30;99.90
53282;DHT22;39167;52.794;6.892;2023-04-24T04:37:31;9.30;99.90
53282;DHT22;39167;52.794;6.892;2023-04-24T04:39:57;8.80;99.90
53282;DHT22;39167;52.794;6.892;2023-04-24T04:42:26;9.30;99.90
53282;DHT22;39167;52.794;6.892;2023-04-24T04:44:55;9.30;99.90
53282;DHT22;39167;52.794;6.892;2023-04-24T04:47:23;9.90;99.90
53282;DHT22;39167;52.794;6.892;2023-04-24T04:49:52;9.30;99.90
53282;DHT22;39167;52.794;6.892;2023-04-24T04:52:18;9.30;99.90
53282;DHT22;39167;52.794;6.892;2023-04-24T04:54:44;9.30;99.90
53282;DHT22;39167;52.794;6.892;2023-04-24T04:57:10;9.30;99.90
53282;DHT22;39167;52.794;6.892;2023-04-24T04:59:36;9.30;99.90
53282;DHT22;39167;52.794;6.892;2023-04-24T05:02:02;9.70;99.90
53282;DHT22;39167;52.794;6.892;2023-04-24T05:04:28;9.30;99.90
53282;DHT22;39167;52.794;6.892;2023-04-24T05:06:54;9.30;99.90
53282;DHT22;39167;52.794;6.892;2023-04-24T05:09:19;9.30;99.90
53282;DHT22;39167;52.794;6.892;2023-04-24T05:11:45;9.30;99.90
53282;DHT22;39167;52.794;6.892;2023-04-24T05:14:11;9.30;99.90
53282;DHT22;39167;52.794;6.892;2023-04-24T05:16:38;9.30;99.90
53282;DHT22;39167;52.794;6.892;2023-04-24T05:19:04;9.30;99.90
53282;DHT22;39167;52.794;6.892;2023-04-24T05:21:30;9.30;99.90
53282;DHT22;39167;52.794;6.892;2023-04-24T05:23:56;9.30;99.90
53282;DHT22;39167;52.794;6.892;2023-04-24T05:26:22;9.30;99.90
53282;DHT22;39167;52.794;6.892;2023-04-24T05:28:48;9.30;99.90
53282;DHT22;39167;52.794;6.892;2023-04-24T05:31:14;9.30;99.90
53282;DHT22;39167;52.794;6.892;2023-04-24T05:33:39;9.30;99.90
53282;DHT22;39167;52.794;6.892;2023-04-24T05:36:06;9.30;99.90
53282;DHT22;39167;52.794;6.892;2023-04-24T05:38:32;9.30;99.90
53282;DHT22;39167;52.794;6.892;2023-04-24T05:40:57;9.30;99.90
53282;DHT22;39167;52.794;6.892;2023-04-24T05:43:23;9.30;99.90
53282;DHT22;39167;52.794;6.892;2023-04-24T05:45:49;9.30;99.90
53282;DHT22;39167;52.794;6.892;2023-04-24T05:48:15;9.30;99.90
53282;DHT22;39167;52.794;6.892;2023-04-24T05:50:41;9.30;99.90
53282;DHT22;39167;52.794;6.892;2023-04-24T05:53:06;9.30;99.90
53282;DHT22;39167;52.794;6.892;2023-04-24T05:55:32;9.30;99.90
53282;DHT22;39167;52.794;6.892;2023-04-24T05:58:02;9.30;99.90
53282;DHT22;39167;52.794;6.892;2023-04-24T06:00:30;9.30;99.90
53282;DHT22;39167;52.794;6.892;2023-04-24T06:05:43;8.50;99.90
53282;DHT22;39167;52.794;6.892;2023-04-24T06:08:09;9.30;99.90
53282;DHT22;39167;52.794;6.892;2023-04-24T06:10:35;9.30;99.90
53282;DHT22;39167;52.794;6.892;2023-04-24T06:13:01;9.30;99.90
53282;DHT22;39167;52.794;6.892;2023-04-24T06:15:32;9.30;99.90
53282;DHT22;39167;52.794;6.892;2023-04-24T06:17:58;9.30;99.90
53282;DHT22;39167;52.794;6.892;2023-04-24T06:20:24;9.30;99.90
53282;DHT22;39167;52.794;6.892;2023-04-24T06:22:50;9.20;99.90
53282;DHT22;39167;52.794;6.892;2023-04-24T06:25:16;8.80;99.90
53282;DHT22;39167;52.794;6.892;2023-04-24T06:27:42;9.60;99.90
53282;DHT22;39167;52.794;6.892;2023-04-24T06:30:08;9.30;99.90
53282;DHT22;39167;52.794;6.892;2023-04-24T06:32:34;9.20;99.90
53282;DHT22;39167;52.794;6.892;2023-04-24T06:35:00;9.20;99.90
53282;DHT22;39167;52.794;6.892;2023-04-24T06:37:25;9.20;99.90
53282;DHT22;39167;52.794;6.892;2023-04-24T06:39:51;9.20;99.90
53282;DHT22;39167;52.794;6.892;2023-04-24T06:42:17;9.20;99.90
53282;DHT22;39167;52.794;6.892;2023-04-24T06:44:43;9.20;99.90
53282;DHT22;39167;52.794;6.892;2023-04-24T06:47:10;9.20;99.90
53282;DHT22;39167;52.794;6.892;2023-04-24T06:49:40;9.20;99.90
53282;DHT22;39167;52.794;6.892;2023-04-24T06:52:06;9.70;99.90
53282;DHT22;39167;52.794;6.892;2023-04-24T06:54:32;9.20;99.90
53282;DHT22;39167;52.794;6.892;2023-04-24T06:56:59;9.20;99.90
53282;DHT22;39167;52.794;6.892;2023-04-24T06:59:26;9.20;99.90
53282;DHT22;39167;52.794;6.892;2023-04-24T07:01:52;9.20;99.90
53282;DHT22;39167;52.794;6.892;2023-04-24T07:04:21;9.10;99.90
53282;DHT22;39167;52.794;6.892;2023-04-24T07:06:48;9.10;99.90
53282;DHT22;39167;52.794;6.892;2023-04-24T07:09:15;9.20;99.90
53282;DHT22;39167;52.794;6.892;2023-04-24T07:11:41;9.10;99.90
53282;DHT22;39167;52.794;6.892;2023-04-24T07:14:08;9.20;99.90
53282;DHT22;39167;52.794;6.892;2023-04-24T07:16:34;9.10;99.90
53282;DHT22;39167;52.794;6.892;2023-04-24T07:19:00;9.20;99.90
53282;DHT22;39167;52.794;6.892;2023-04-24T07:21:25;9.20;99.90
53282;DHT22;39167;52.794;6.892;2023-04-24T07:23:52;9.20;99.90
53282;DHT22;39167;52.794;6.892;2023-04-24T07:26:25;9.20;99.90
53282;DHT22;39167;52.794;6.892;2023-04-24T07:28:51;8.30;99.90
53282;DHT22;39167;52.794;6.892;2023-04-24T07:31:16;9.20;99.90
53282;DHT22;39167;52.794;6.892;2023-04-24T07:33:42;9.20;99.90
53282;DHT22;39167;52.794;6.892;2023-04-24T07:36:08;9.30;99.90
53282;DHT22;39167;52.794;6.892;2023-04-24T07:38:33;9.30;99.90
53282;DHT22;39167;52.794;6.892;2023-04-24T07:40:59;9.30;99.90
53282;DHT22;39167;52.794;6.892;2023-04-24T07:43:25;9.30;99.90
53282;DHT22;39167;52.794;6.892;2023-04-24T07:45:51;9.30;99.90
53282;DHT22;39167;52.794;6.892;2023-04-24T07:48:17;9.30;99.90
53282;DHT22;39167;52.794;6.892;2023-04-24T07:50:44;9.30;99.90
53282;DHT22;39167;52.794;6.892;2023-04-24T07:53:10;9.40;99.90
53282;DHT22;39167;52.794;6.892;2023-04-24T07:55:36;9.40;99.90
53282;DHT22;39167;52.794;6.892;2023-04-24T07:58:02;9.40;99.90
53282;DHT22;39167;52.794;6.892;2023-04-24T08:00:28;9.40;99.90
53282;DHT22;39167;52.794;6.892;2023-04-24T08:02:53;9.50;99.90
53282;DHT22;39167;52.794;6.892;2023-04-24T08:05:19;9.60;99.90
53282;DHT22;39167;52.794;6.892;2023-04-24T08:07:45;9.50;99.90
53282;DHT22;39167;52.794;6.892;2023-04-24T08:10:14;9.50;99.90
53282;DHT22;39167;52.794;6.892;2023-04-24T08:15:27;9.50;99.90
53282;DHT22;39167;52.794;6.892;2023-04-24T08:17:53;9.60;99.90
53282;DHT22;39167;52.794;6.892;2023-04-24T08:28:09;9.60;99.90
53282;DHT22;39167;52.794;6.892;2023-04-24T08:30:36;9.50;99.90
53282;DHT22;39167;52.794;6.892;2023-04-24T08:33:02;9.60;99.90
53282;DHT22;39167;52.794;6.892;2023-04-24T08:35:28;9.60;99.90
53282;DHT22;39167;52.794;6.892;2023-04-24T08:37:53;9.50;99.90
53282;DHT22;39167;52.794;6.892;2023-04-24T08:40:25;9.50;99.90
53282;DHT22;39167;52.794;6.892;2023-04-24T08:42:54;9.40;99.90
53282;DHT22;39167;52.794;6.892;2023-04-24T08:45:20;9.50;99.90
53282;DHT22;39167;52.794;6.892;2023-04-24T08:47:47;9.50;99.90
53282;DHT22;39167;52.794;6.892;2023-04-24T08:50:14;9.50;99.90
53282;DHT22;39167;52.794;6.892;2023-04-24T08:52:42;9.50;99.90
53282;DHT22;39167;52.794;6.892;2023-04-24T08:55:08;9.50;99.90
53282;DHT22;39167;52.794;6.892;2023-04-24T08:57:35;9.50;99.90
53282;DHT22;39167;52.794;6.892;2023-04-24T09:00:01;9.50;99.90
53282;DHT22;39167;52.794;6.892;2023-04-24T09:02:28;9.50;99.90
53282;DHT22;39167;52.794;6.892;2023-04-24T09:04:55;9.50;99.90
53282;DHT22;39167;52.794;6.892;2023-04-24T09:07:23;9.40;99.90
53282;DHT22;39167;52.794;6.892;2023-04-24T09:09:50;9.40;99.90
53282;DHT22;39167;52.794;6.892;2023-04-24T09:12:17;9.40;99.90
53282;DHT22;39167;52.794;6.892;2023-04-24T09:14:44;9.40;99.90
53282;DHT22;39167;52.794;6.892;2023-04-24T09:17:11;9.40;99.90
53282;DHT22;39167;52.794;6.892;2023-04-24T09:19:37;9.30;99.90
53282;DHT22;39167;52.794;6.892;2023-04-24T09:22:07;9.40;99.90
53282;DHT22;39167;52.794;6.892;2023-04-24T09:37:41;9.30;99.90
53282;DHT22;39167;52.794;6.892;2023-04-24T09:40:20;9.30;99.90
53282;DHT22;39167;52.794;6.892;2023-04-24T09:42:52;9.30;99.90
53282;DHT22;39167;52.794;6.892;2023-04-24T09:45:20;9.30;99.90
53282;DHT22;39167;52.794;6.892;2023-04-24T09:47:46;9.20;99.90
53282;DHT22;39167;52.794;6.892;2023-04-24T09:50:16;9.20;99.90
53282;DHT22;39167;52.794;6.892;2023-04-24T09:52:43;9.20;99.90
53282;DHT22;39167;52.794;6.892;2023-04-24T09:55:18;9.10;99.90
53282;DHT22;39167;52.794;6.892;2023-04-24T09:57:58;9.00;99.90
53282;DHT22;39167;52.794;6.892;2023-04-24T10:00:26;9.00;99.90
53282;DHT22;39167;52.794;6.892;2023-04-24T10:03:05;9.00;99.90
53282;DHT22;39167;52.794;6.892;2023-04-24T10:05:37;9.00;99.90
53282;DHT22;39167;52.794;6.892;2023-04-24T10:08:11;9.10;99.90
53282;DHT22;39167;52.794;6.892;2023-04-24T10:10:46;9.00;99.90
53282;DHT22;39167;52.794;6.892;2023-04-24T10:13:14;9.10;99.90
53282;DHT22;39167;52.794;6.892;2023-04-24T10:15:41;9.10;99.90
53282;DHT22;39167;52.794;6.892;2023-04-24T10:18:08;9.10;99.90
53282;DHT22;39167;52.794;6.892;2023-04-24T10:20:35;9.10;99.90
53282;DHT22;39167;52.794;6.892;2023-04-24T10:23:02;9.10;99.90
53282;DHT22;39167;52.794;6.892;2023-04-24T10:25:37;9.10;99.90
53282;DHT22;39167;52.794;6.892;2023-04-24T10:28:03;9.10;99.90
53282;DHT22;39167;52.794;6.892;2023-04-24T10:30:34;9.10;99.90
53282;DHT22;39167;52.794;6.892;2023-04-24T10:33:05;9.10;99.90
53282;DHT22;39167;52.794;6.892;2023-04-24T10:35:33;9.10;99.90
53282;DHT22;39167;52.794;6.892;2023-04-24T10:38:03;9.10;99.90
53282;DHT22;39167;52.794;6.892;2023-04-24T10:40:35;9.10;99.90
53282;DHT22;39167;52.794;6.892;2023-04-24T10:43:05;9.10;99.90
53282;DHT22;39167;52.794;6.892;2023-04-24T10:45:33;9.10;99.90
53282;DHT22;39167;52.794;6.892;2023-04-24T10:48:07;9.10;99.90
53282;DHT22;39167;52.794;6.892;2023-04-24T10:50:46;9.20;99.90
53282;DHT22;39167;52.794;6.892;2023-04-24T10:53:20;9.20;99.90
53282;DHT22;39167;52.794;6.892;2023-04-24T10:55:51;9.20;99.90
53282;DHT22;39167;52.794;6.892;2023-04-24T10:58:36;9.20;99.90
53282;DHT22;39167;52.794;6.892;2023-04-24T11:01:03;9.20;99.90
53282;DHT22;39167;52.794;6.892;2023-04-24T11:03:33;9.10;99.90
53282;DHT22;39167;52.794;6.892;2023-04-24T11:06:09;9.10;99.90
53282;DHT22;39167;52.794;6.892;2023-04-24T11:08:45;9.50;99.90
53282;DHT22;39167;52.794;6.892;2023-04-24T11:11:12;9.10;99.90
53282;DHT22;39167;52.794;6.892;2023-04-24T11:22:00;9.10;99.90
53282;DHT22;39167;52.794;6.892;2023-04-24T11:27:05;9.10;99.90
53282;DHT22;39167;52.794;6.892;2023-04-24T11:29:47;9.10;99.90
53282;DHT22;39167;52.794;6.892;2023-04-24T11:32:38;9.10;99.90
53282;DHT22;39167;52.794;6.892;2023-04-24T11:35:14;9.10;99.90
53282;DHT22;39167;52.794;6.892;2023-04-24T11:37:42;9.10;99.90
53282;DHT22;39167;52.794;6.892;2023-04-24T11:40:10;9.10;99.90
53282;DHT22;39167;52.794;6.892;2023-04-24T11:42:38;9.10;99.90
53282;DHT22;39167;52.794;6.892;2023-04-24T11:47:37;9.10;99.90
53282;DHT22;39167;52.794;6.892;2023-04-24T11:50:04;9.00;99.90
53282;DHT22;39167;52.794;6.892;2023-04-24T11:52:31;8.90;99.90
53282;DHT22;39167;52.794;6.892;2023-04-24T11:54:57;8.90;99.90
53282;DHT22;39167;52.794;6.892;2023-04-24T11:57:24;8.90;99.90
53282;DHT22;39167;52.794;6.892;2023-04-24T11:59:53;8.90;99.90
53282;DHT22;39167;52.794;6.892;2023-04-24T12:02:26;8.90;99.90
53282;DHT22;39167;52.794;6.892;2023-04-24T12:04:55;8.90;99.90
53282;DHT22;39167;52.794;6.892;2023-04-24T12:07:24;8.90;99.90
53282;DHT22;39167;52.794;6.892;2023-04-24T12:09:59;9.00;99.90
53282;DHT22;39167;52.794;6.892;2023-04-24T12:12:28;9.00;99.90
53282;DHT22;39167;52.794;6.892;2023-04-24T12:14:58;9.00;99.90
53282;DHT22;39167;52.794;6.892;2023-04-24T12:17:32;9.00;99.90
53282;DHT22;39167;52.794;6.892;2023-04-24T12:39:34;9.00;99.90
53282;DHT22;39167;52.794;6.892;2023-04-24T12:41:59;9.00;99.90
53282;DHT22;39167;52.794;6.892;2023-04-24T12:44:35;8.90;99.90
53282;DHT22;39167;52.794;6.892;2023-04-24T12:47:14;8.90;99.90
53282;DHT22;39167;52.794;6.892;2023-04-24T12:49:40;8.90;99.90
53282;DHT22;39167;52.794;6.892;2023-04-24T12:52:06;8.90;99.90
53282;DHT22;39167;52.794;6.892;2023-04-24T12:54:32;8.90;99.90
53282;DHT22;39167;52.794;6.892;2023-04-24T12:56:58;8.90;99.90
53282;DHT22;39167;52.794;6.892;2023-04-24T12:59:25;8.90;99.90
53282;DHT22;39167;52.794;6.892;2023-04-24T13:01:51;8.90;99.90
53282;DHT22;39167;52.794;6.892;2023-04-24T13:04:17;8.90;99.90
53282;DHT22;39167;52.794;6.892;2023-04-24T13:06:43;9.00;99.90
53282;DHT22;39167;52.794;6.892;2023-04-24T13:09:08;9.00;99.90
53282;DHT22;39167;52.794;6.892;2023-04-24T13:11:35;9.80;99.90
53282;DHT22;39167;52.794;6.892;2023-04-24T13:14:00;9.10;99.90
53282;DHT22;39167;52.794;6.892;2023-04-24T13:16:26;9.10;99.90
53282;DHT22;39167;52.794;6.892;2023-04-24T13:18:52;9.10;99.90
53282;DHT22;39167;52.794;6.892;2023-04-24T13:21:18;9.10;99.90
53282;DHT22;39167;52.794;6.892;2023-04-24T13:23:43;9.10;99.90
53282;DHT22;39167;52.794;6.892;2023-04-24T13:26:09;9.10;99.90
53282;DHT22;39167;52.794;6.892;2023-04-24T13:28:35;9.20;99.90
53282;DHT22;39167;52.794;6.892;2023-04-24T13:31:00;9.10;99.90
53282;DHT22;39167;52.794;6.892;2023-04-24T13:33:26;9.10;99.90
53282;DHT22;39167;52.794;6.892;2023-04-24T13:35:58;9.10;99.90
53282;DHT22;39167;52.794;6.892;2023-04-24T13:38:23;9.00;99.90
53282;DHT22;39167;52.794;6.892;2023-04-24T13:40:49;9.00;99.90
53282;DHT22;39167;52.794;6.892;2023-04-24T13:43:15;9.00;99.90
53282;DHT22;39167;52.794;6.892;2023-04-24T13:45:41;8.90;99.90
53282;DHT22;39167;52.794;6.892;2023-04-24T13:48:07;8.90;99.90
53282;DHT22;39167;52.794;6.892;2023-04-24T13:50:34;8.90;99.90
53282;DHT22;39167;52.794;6.892;2023-04-24T13:53:00;9.00;99.90
53282;DHT22;39167;52.794;6.892;2023-04-24T13:55:26;9.20;99.90
53282;DHT22;39167;52.794;6.892;2023-04-24T13:57:52;9.00;99.90
53282;DHT22;39167;52.794;6.892;2023-04-24T14:00:20;9.00;99.90
53282;DHT22;39167;52.794;6.892;2023-04-24T14:02:46;9.00;99.90
53282;DHT22;39167;52.794;6.892;2023-04-24T14:05:13;9.00;99.90
53282;DHT22;39167;52.794;6.892;2023-04-24T14:07:41;9.00;99.90
53282;DHT22;39167;52.794;6.892;2023-04-24T14:10:07;9.00;99.90
53282;DHT22;39167;52.794;6.892;2023-04-24T14:12:33;8.90;99.90
53282;DHT22;39167;52.794;6.892;2023-04-24T14:14:59;8.90;99.90
53282;DHT22;39167;52.794;6.892;2023-04-24T14:17:25;8.60;99.90
53282;DHT22;39167;52.794;6.892;2023-04-24T14:19:50;9.50;99.90
53282;DHT22;39167;52.794;6.892;2023-04-24T14:22:17;8.90;99.90
53282;DHT22;39167;52.794;6.892;2023-04-24T14:24:43;8.80;99.90
53282;DHT22;39167;52.794;6.892;2023-04-24T14:27:09;8.80;99.90
53282;DHT22;39167;52.794;6.892;2023-04-24T14:29:34;8.80;99.90
53282;DHT22;39167;52.794;6.892;2023-04-24T14:32:00;8.70;99.90
53282;DHT22;39167;52.794;6.892;2023-04-24T14:34:26;8.70;99.90
53282;DHT22;39167;52.794;6.892;2023-04-24T14:36:52;8.70;99.90
53282;DHT22;39167;52.794;6.892;2023-04-24T14:39:18;9.20;99.90
53282;DHT22;39167;52.794;6.892;2023-04-24T14:41:44;8.70;99.90
53282;DHT22;39167;52.794;6.892;2023-04-24T14:44:10;8.70;99.90
53282;DHT22;39167;52.794;6.892;2023-04-24T14:46:36;8.70;99.90
53282;DHT22;39167;52.794;6.892;2023-04-24T14:49:02;8.70;99.90
53282;DHT22;39167;52.794;6.892;2023-04-24T14:51:27;8.70;99.90
53282;DHT22;39167;52.794;6.892;2023-04-24T14:53:56;8.90;99.90
53282;DHT22;39167;52.794;6.892;2023-04-24T14:56:23;8.80;99.90
53282;DHT22;39167;52.794;6.892;2023-04-24T14:58:49;8.80;99.90
53282;DHT22;39167;52.794;6.892;2023-04-24T15:01:14;8.70;99.90
53282;DHT22;39167;52.794;6.892;2023-04-24T15:03:40;8.80;99.90
53282;DHT22;39167;52.794;6.892;2023-04-24T15:06:06;8.70;99.90
53282;DHT22;39167;52.794;6.892;2023-04-24T15:08:32;8.80;99.90
53282;DHT22;39167;52.794;6.892;2023-04-24T15:10:58;8.70;99.90
53282;DHT22;39167;52.794;6.892;2023-04-24T15:13:24;8.70;99.90
53282;DHT22;39167;52.794;6.892;2023-04-24T15:15:49;8.80;99.90
53282;DHT22;39167;52.794;6.892;2023-04-24T15:18:15;8.90;99.90
53282;DHT22;39167;52.794;6.892;2023-04-24T15:20:41;8.70;99.90
53282;DHT22;39167;52.794;6.892;2023-04-24T15:23:10;8.80;99.90
53282;DHT22;39167;52.794;6.892;2023-04-24T15:25:36;8.80;99.90
53282;DHT22;39167;52.794;6.892;2023-04-24T15:28:03;8.80;99.90
53282;DHT22;39167;52.794;6.892;2023-04-24T15:30:30;8.80;99.90
53282;DHT22;39167;52.794;6.892;2023-04-24T15:32:56;8.80;99.90
53282;DHT22;39167;52.794;6.892;2023-04-24T15:35:22;8.80;99.90
53282;DHT22;39167;52.794;6.892;2023-04-24T15:37:48;8.80;99.90
53282;DHT22;39167;52.794;6.892;2023-04-24T15:40:14;9.60;99.90
53282;DHT22;39167;52.794;6.892;2023-04-24T15:42:44;8.90;99.90
53282;DHT22;39167;52.794;6.892;2023-04-24T15:45:10;8.90;99.90
53282;DHT22;39167;52.794;6.892;2023-04-24T15:47:37;9.00;99.90
53282;DHT22;39167;52.794;6.892;2023-04-24T15:50:04;9.00;99.90
53282;DHT22;39167;52.794;6.892;2023-04-24T15:52:30;9.00;99.90
53282;DHT22;39167;52.794;6.892;2023-04-24T15:54:56;9.00;99.90
53282;DHT22;39167;52.794;6.892;2023-04-24T15:57:22;9.10;99.90
53282;DHT22;39167;52.794;6.892;2023-04-24T15:59:47;9.00;99.90
53282;DHT22;39167;52.794;6.892;2023-04-24T16:02:14;9.00;99.90
53282;DHT22;39167;52.794;6.892;2023-04-24T16:04:47;9.00;99.90
53282;DHT22;39167;52.794;6.892;2023-04-24T16:07:14;8.90;99.90
53282;DHT22;39167;52.794;6.892;2023-04-24T16:09:40;8.90;99.90
53282;DHT22;39167;52.794;6.892;2023-04-24T16:12:06;8.80;99.90
53282;DHT22;39167;52.794;6.892;2023-04-24T16:14:33;8.90;99.90
53282;DHT22;39167;52.794;6.892;2023-04-24T16:16:59;8.90;99.90
53282;DHT22;39167;52.794;6.892;2023-04-24T16:19:26;8.90;99.90
53282;DHT22;39167;52.794;6.892;2023-04-24T16:21:52;8.90;99.90
53282;DHT22;39167;52.794;6.892;2023-04-24T16:24:23;8.90;99.90
53282;DHT22;39167;52.794;6.892;2023-04-24T16:26:51;8.90;99.90
53282;DHT22;39167;52.794;6.892;2023-04-24T16:29:17;8.90;99.90
53282;DHT22;39167;52.794;6.892;2023-04-24T16:31:43;8.90;99.90
53282;DHT22;39167;52.794;6.892;2023-04-24T16:34:09;8.30;99.90
53282;DHT22;39167;52.794;6.892;2023-04-24T16:36:35;8.90;99.90
53282;DHT22;39167;52.794;6.892;2023-04-24T16:39:02;9.00;99.90
53282;DHT22;39167;52.794;6.892;2023-04-24T16:41:32;9.00;99.90
53282;DHT22;39167;52.794;6.892;2023-04-24T16:43:58;9.10;99.90